Oxford, AL

10:46 AM CDT on September 01, 2015 (GMT -0500)
Wesson Aviation | | Change Station
CLOSE
Current Station
Personal Weather Station
Location: Oxford, AL
Elevation: 659 ft
Nearby Weather Stations

Elev 659 ft 33.58 °N, 85.82 °W | Updated 4 minutes ago

Partly Cloudy
Partly Cloudy
82.9 °F
Feels Like 89 °F
N
1.0
Wind Variable Wind from SE
Gusts 5.0 mph

Today
High -- | Low -- °F
--% Chance of Precip.
Yesterday
High -- | Low -- °F
Precip. -- in
6:17 AM 7:09 PM
Waning Gibbous, 88% visible
Pressure 30.12 in
Visibility 10.0 miles
Clouds Few 6000 ft
Heat Index 89 °F
Dew Point 73 °F
Humidity 73%
Rainfall 0.00 in
Snow Depth Not available.
UV 6 out of 12
Pollen 9.00 out of 12
Air Quality Not available.
Flu Activity Not available.
METAR KANB 011453Z AUTO 04004KT 10SM FEW060 27/21 A3015 RMK AO2 SLP199 T02720211 50001
Pressure 30.12 in
Visibility 10.0 miles
Clouds Few 6000 ft
Heat Index 89 °F
Dew Point 73 °F
Humidity 73%
Rainfall 0.00 in
Snow Depth Not available.
UV 6 out of 12
Pollen 9.00 out of 12
Air Quality Not available.
Flu Activity Not available.
METAR KANB 011453Z AUTO 04004KT 10SM FEW060 27/21 A3015 RMK AO2 SLP199 T02720211 50001

10-Day Weather Forecast

×

Almanac

Astronomy

Sep. 01, 2015 Rise Set
Actual Time
Civil Twilight
Nautical Twilight
Astronomical Twilight
Moon
Length of Visible Light
Length of Day
Tomorrow will be .
, % of the Moon is Illuminated

Today's Extremes

State Highs State Lows

Community

WunderPhotos

Upload Photos

1,851,538 photos uploaded!

WunderBlogs® & News

Nearby

Air Quality

  Air Quality AQ Index Pollutant
Not available.

Snow Depth

Station Depth Elevation

Earthquake Activity

City Distance Mag. Time & Date
Minimum magnitude displayed is 2.5.

Coastal Water Temperatures

Place Temperature

Stations

Nearby Weather Stations

Station Location Temp. Windchill Dew Point Humidity Wind Precip. Elev Updated Type